AirNav   Air Wisconsin Up To $57,000 Bonus
 
 1592 users online  

99IL Providence Place Field Airport
Stockton, Illinois, USA

GOING TO STOCKTON?


FAA INFORMATION EFFECTIVE 07 OCTOBER 2021

Location

FAA Identifier: 99IL
Lat/Long: 42-17-12.0000N 089-57-27.0000W
42-17.200000N 089-57.450000W
42.2866667,-89.9575000
(estimated)
Elevation: 959 ft. / 292 m (estimated)
From city: 5 miles SE of STOCKTON, IL
Time zone: UTC -5 (UTC -6 during Standard Time)
Zip code: 61044

Airport Operations

Airport use: CLOSED INDEFINITELY
Activation date: 05/2006
Control tower: no
ARTCC: CHICAGO CENTER
FSS: KANKAKEE FLIGHT SERVICE STATION
Attendance: UNATNDD
Segmented circle: no

Airport Communications

WX AWOS-3PT at SFY (16 nm SW): 118.650 (815-273-4429)
WX AWOS-3 at FEP (17 nm E): 120.525 (815-233-4472)

Nearby radio navigation aids

VOR radial/distance  VOR name  Freq  Var
PLLr312/27.3POLO VOR/DME111.2003E
DBQr098/34.0DUBUQUE VORTAC115.8004E

Airport Services

Runway Information

Runway 18/36

Dimensions: 1600 x 80 ft. / 488 x 24 m
Surface: turf
RUNWAY 18  RUNWAY 36
Traffic pattern: leftleft
Obstructions: 44 ft. trees, 750 ft. from runway20 ft. pline, 285 ft. from runway

Airport Ownership and Management from official FAA records

Ownership: Privately-owned
Owner: SHARON RUTH HASTING
13216 EAST KRISE ROAD
STOCKTON, IL 61085-9403
Phone (815) 990-3276
PROVIDENCEPLACEFARM@GMAIL.COM
Manager: SHARON RUTH HASTING
13216 EAST KRISE ROAD
STOCKTON, IL 61085-9403
Phone (815) 990-3276

Additional Remarks

FOR CD CTC CHICAGO ARTCC AT 630-906-8921.
(ARPT STATUS) ARPT CLSD INDEFLY.

Instrument Procedures

There are no published instrument procedures at 99IL.

Some nearby airports with instrument procedures:

KSFY - Tri-Township Airport (16 nm SW)
KFEP - Albertus Airport (17 nm E)
KEFT - Monroe Municipal Airport (26 nm NE)
KCWI - Clinton Municipal Airport (32 nm SW)
KPVB - Platteville Municipal Airport (32 nm NW)
 
Loc | Ops | Rwys | IFR | FBO | Links
Com | Nav | Svcs | Stats | Notes
Area around 99IL (Providence Place Field Airport)
 
Road maps at: MapQuest Bing Google
 
Aerial photo
No photo
 
Sectional chart

 
Airport distance calculator
Flying to Providence Place Field Airport? Find the distance to fly.

From to 99IL

Sunrise and sunset
Times for 19-Oct-2021
 Local
(UTC-5)
 Zulu
(UTC)
Morning civil twilight06:5011:50
Sunrise07:1812:18
Sunset18:1123:11
Evening civil twilight18:4023:40

Current date and time
Zulu (UTC)  19-Oct-2021 14:59:22
Local (UTC-5)  19-Oct-2021 09:59:22
 
METAR
KSFY 
16nm SW 
191435Z AUTO 16004KT 10SM CLR 12/10 A3009 RMK AO2
KFEP 
17nm E 
191430Z AUTO 22009KT 10SM CLR 16/07 A3011 RMK AO2 T01570068
KEFT 
25nm NE 
191455Z AUTO 22006KT 10SM CLR 14/08 A3008 RMK AO2 T01400077
TAF
KDBQ 
34nm W 
191120Z 1912/2012 19006KT P6SM SKC FM191600 19013G22KT P6SM SCT250 FM192300 17007KT P6SM SKC
KRFD 
38nm E 
191120Z 1912/2012 20008KT P6SM FEW250 FM191800 20012G18KT P6SM SCT250 FM192300 18006KT P6SM SCT100
NOTAMs
Click for the latest NOTAMs
NOTAMs are issued by the DoD/FAA and will open in a separate window not controlled by AirNav.

 

 
 

Would you like to see your business listed on this page?

 If your business provides an interesting product or service to pilots, flight crews, aircraft, or users of the Providence Place Field Airport, you should consider listing it here.  To start the listing process, click on the button below
 
Add a business
 

Other Pages about Providence Place Field Airport

Update a link
 
Copyright © AirNav, LLC. All rights reserved. Privacy Policy  Contact